createdAt,value
2023-02-13T00:01:17.456Z,2.60
2023-02-13T00:03:47.281Z,2.50
2023-02-13T00:06:17.611Z,2.50
2023-02-13T00:08:49.365Z,2.50
2023-02-13T00:11:19.919Z,2.50
2023-02-13T00:13:51.454Z,2.50
2023-02-13T00:16:18.248Z,2.50
2023-02-13T00:18:47.113Z,2.40
2023-02-13T00:21:15.887Z,2.40
2023-02-13T00:24:12.188Z,2.40
2023-02-13T00:26:43.061Z,2.40
2023-02-13T00:29:11.879Z,2.40
2023-02-13T00:31:42.287Z,2.30
2023-02-13T00:34:35.839Z,2.30
2023-02-13T00:37:09.562Z,2.30
2023-02-13T00:39:38.960Z,2.30
2023-02-13T00:42:09.617Z,2.20
2023-02-13T00:44:43.246Z,2.20
2023-02-13T00:47:13.975Z,2.20
2023-02-13T00:49:43.181Z,2.20
2023-02-13T00:52:12.425Z,2.20
2023-02-13T00:54:47.002Z,2.10
2023-02-13T00:57:13.866Z,2.10
2023-02-13T00:59:43.615Z,2.10
2023-02-13T01:14:17.260Z,2.20
2023-02-13T01:16:53.427Z,2.30
2023-02-13T01:19:24.229Z,2.30
2023-02-13T01:22:20.894Z,2.30
2023-02-13T01:24:54.851Z,2.40
2023-02-13T01:27:23.122Z,2.40
2023-02-13T01:29:50.958Z,2.40
2023-02-13T01:32:19.658Z,2.30
2023-02-13T01:34:49.218Z,2.30
2023-02-13T01:37:19.746Z,2.30
2023-02-13T01:39:53.856Z,2.30
2023-02-13T01:42:35.994Z,2.20
2023-02-13T01:45:17.734Z,2.20
2023-02-13T01:47:50.123Z,2.30
2023-02-13T01:50:32.494Z,2.30
2023-02-13T01:53:15.535Z,2.20
2023-02-13T01:56:00.592Z,2.20
2023-02-13T01:58:35.647Z,2.20
2023-02-13T02:01:05.598Z,2.20
2023-02-13T02:03:41.149Z,2.10
2023-02-13T02:06:26.958Z,2.10
2023-02-13T02:09:04.563Z,2.10
2023-02-13T02:11:58.099Z,2.10
2023-02-13T02:14:32.998Z,2.00
2023-02-13T02:16:59.868Z,2.00
2023-02-13T02:19:34.379Z,2.00
2023-02-13T02:22:23.423Z,2.00
2023-02-13T02:25:23.836Z,1.90
2023-02-13T02:28:49.834Z,1.90
2023-02-13T02:35:19.092Z,1.90
2023-02-13T02:37:52.737Z,1.80
2023-02-13T02:40:34.073Z,1.80
2023-02-13T02:43:24.283Z,1.80
2023-02-13T02:49:57.443Z,1.80
2023-02-13T02:52:51.807Z,1.70
2023-02-13T02:58:47.296Z,1.60
2023-02-13T03:01:37.429Z,1.60
2023-02-13T03:04:26.795Z,1.60
2023-02-13T03:07:00.320Z,1.60
2023-02-13T03:10:01.758Z,1.60
2023-02-13T03:13:13.886Z,1.60
2023-02-13T03:16:10.095Z,1.60
2023-02-13T03:19:00.744Z,1.60
2023-02-13T03:22:19.633Z,1.60
2023-02-13T03:25:11.788Z,1.50
2023-02-13T03:28:16.998Z,1.50
2023-02-13T03:30:59.929Z,1.40
2023-02-13T03:33:52.241Z,1.30
2023-02-13T03:40:23.186Z,1.30
2023-02-13T03:43:19.344Z,1.20
2023-02-13T03:46:04.767Z,1.20
2023-02-13T03:48:59.513Z,1.10
2023-02-13T03:54:46.414Z,1.10
2023-02-13T03:57:38.391Z,1.10
2023-02-13T04:00:16.795Z,1.10
2023-02-13T04:03:21.964Z,1.00
2023-02-13T04:05:56.291Z,1.00
2023-02-13T04:08:25.294Z,1.00
2023-02-13T04:11:23.831Z,0.90
2023-02-13T04:14:00.165Z,1.00
2023-02-13T04:19:38.795Z,0.90
2023-02-13T04:22:07.733Z,0.80
2023-02-13T04:24:34.444Z,0.80
2023-02-13T04:27:03.935Z,0.80
2023-02-13T04:29:33.845Z,0.80
2023-02-13T04:32:04.130Z,0.80
2023-02-13T04:34:30.981Z,0.80
2023-02-13T04:37:00.960Z,0.80
2023-02-13T04:39:27.610Z,0.80
2023-02-13T04:41:58.973Z,0.80
2023-02-13T04:44:30.301Z,0.80
2023-02-13T04:47:01.864Z,0.80
2023-02-13T04:49:37.035Z,0.80
2023-02-13T04:52:07.835Z,0.80
2023-02-13T04:54:36.737Z,0.80
2023-02-13T04:57:03.516Z,0.80
2023-02-13T04:59:35.558Z,0.80
2023-02-13T05:02:11.865Z,0.80
2023-02-13T05:04:38.964Z,0.80
2023-02-13T05:09:57.194Z,0.70
2023-02-13T05:12:26.559Z,0.70
2023-02-13T05:14:53.465Z,0.70
2023-02-13T05:17:21.475Z,0.70
2023-02-13T05:19:59.522Z,0.70
2023-02-13T05:22:44.609Z,0.70
2023-02-13T05:25:11.511Z,0.70
2023-02-13T05:27:50.345Z,0.70
2023-02-13T05:30:23.158Z,0.70
2023-02-13T05:32:56.205Z,0.60
2023-02-13T05:35:30.055Z,0.70
2023-02-13T05:38:00.208Z,0.70
2023-02-13T05:40:29.810Z,0.70
2023-02-13T05:42:57.878Z,0.70
2023-02-13T05:45:27.317Z,0.70
2023-02-13T05:47:59.922Z,0.70
2023-02-13T05:50:27.492Z,0.70
2023-02-13T05:52:58.077Z,0.70
2023-02-13T05:56:10.950Z,0.70
2023-02-13T05:58:40.149Z,0.70
2023-02-13T06:01:17.301Z,0.70
2023-02-13T06:03:46.128Z,0.70
2023-02-13T06:06:17.236Z,0.70
2023-02-13T06:08:52.304Z,0.70
2023-02-13T06:11:20.093Z,0.70
2023-02-13T06:13:52.848Z,0.80
2023-02-13T06:16:19.798Z,0.80
2023-02-13T06:18:47.113Z,0.80
2023-02-13T06:21:16.665Z,0.80
2023-02-13T06:23:44.280Z,0.80
2023-02-13T06:26:11.094Z,0.80
2023-02-13T06:28:45.363Z,0.80
2023-02-13T06:31:13.243Z,0.80
2023-02-13T06:34:07.558Z,0.80
2023-02-13T06:36:38.701Z,0.80
2023-02-13T06:39:05.548Z,0.80
2023-02-13T06:41:34.615Z,0.90
2023-02-13T06:44:03.968Z,0.90
2023-02-13T06:49:32.038Z,0.90
2023-02-13T06:52:02.417Z,0.80
2023-02-13T06:54:46.743Z,0.80
2023-02-13T06:57:18.644Z,0.80
2023-02-13T06:59:47.153Z,0.90
2023-02-13T07:02:15.192Z,0.90
2023-02-13T07:04:44.714Z,0.80
2023-02-13T07:07:21.328Z,0.90
2023-02-13T07:09:53.888Z,0.90
2023-02-13T07:12:24.129Z,0.90
2023-02-13T07:14:54.044Z,0.90
2023-02-13T07:17:27.929Z,0.90
2023-02-13T07:19:55.314Z,0.90
2023-02-13T07:22:24.520Z,0.90
2023-02-13T07:25:00.046Z,0.90
2023-02-13T07:27:30.195Z,0.90
2023-02-13T07:29:59.095Z,1.00
2023-02-13T07:32:32.438Z,1.00
2023-02-13T07:35:02.795Z,1.00
2023-02-13T07:37:31.090Z,1.10
2023-02-13T07:39:59.009Z,1.10
2023-02-13T07:42:29.492Z,1.10
2023-02-13T07:45:05.240Z,1.20
2023-02-13T07:47:33.504Z,1.20
2023-02-13T07:50:05.602Z,1.30
2023-02-13T07:52:37.144Z,1.20
2023-02-13T07:55:08.246Z,1.30
2023-02-13T07:57:34.934Z,1.40
2023-02-13T08:00:03.739Z,1.40
2023-02-13T08:02:43.753Z,1.50
2023-02-13T08:05:13.806Z,1.60
2023-02-13T08:07:40.543Z,1.60
2023-02-13T08:13:24.675Z,1.70
2023-02-13T08:15:55.407Z,1.80
2023-02-13T08:18:22.229Z,1.90
2023-02-13T08:23:51.395Z,2.10
2023-02-13T08:26:21.192Z,2.20
2023-02-13T08:28:57.604Z,2.30
2023-02-13T08:31:26.806Z,2.40
2023-02-13T08:34:24.922Z,2.50
2023-02-13T08:36:56.197Z,2.70
2023-02-13T08:39:23.280Z,2.80
2023-02-13T08:41:49.961Z,3.00
2023-02-13T08:44:17.092Z,3.20
2023-02-13T08:46:55.515Z,3.30
2023-02-13T08:49:27.223Z,3.50
2023-02-13T08:52:05.107Z,3.70
2023-02-13T08:54:38.704Z,4.00
2023-02-13T08:57:12.201Z,4.20
2023-02-13T08:59:41.199Z,4.30
2023-02-13T09:02:14.458Z,4.40
2023-02-13T09:04:41.280Z,4.70
2023-02-13T09:07:09.498Z,4.90
2023-02-13T09:09:40.695Z,5.10
2023-02-13T09:12:37.360Z,5.30
2023-02-13T09:15:30.191Z,5.50
2023-02-13T09:18:00.667Z,5.60
2023-02-13T09:20:30.023Z,5.80
2023-02-13T09:23:09.227Z,6.00
2023-02-13T09:25:39.307Z,6.20
2023-02-13T09:28:09.537Z,6.40
2023-02-13T09:30:44.768Z,6.40
2023-02-13T09:33:16.422Z,6.50
2023-02-13T09:35:43.311Z,6.50
2023-02-13T09:38:12.590Z,6.60
2023-02-13T09:40:52.948Z,6.70
2023-02-13T09:43:33.970Z,6.90
2023-02-13T09:46:28.373Z,7.00
2023-02-13T09:49:02.429Z,7.20
2023-02-13T09:51:31.659Z,7.40
2023-02-13T09:54:08.359Z,7.60
2023-02-13T09:57:08.359Z,7.80
2023-02-13T10:00:16.054Z,7.90
2023-02-13T10:02:58.017Z,8.00
2023-02-13T10:05:42.037Z,8.20
2023-02-13T10:08:47.943Z,8.40
2023-02-13T10:11:21.905Z,8.70
2023-02-13T10:14:17.397Z,9.00
2023-02-13T10:17:08.540Z,9.20
2023-02-13T10:20:12.359Z,9.30
2023-02-13T10:22:46.461Z,9.50
2023-02-13T10:25:56.641Z,9.60
2023-02-13T10:28:46.227Z,9.70
2023-02-13T10:31:20.434Z,9.70
2023-02-13T10:33:58.392Z,9.80
2023-02-13T10:36:30.830Z,10.00
2023-02-13T10:39:22.251Z,10.20
2023-02-13T10:42:06.728Z,10.50
2023-02-13T10:44:59.471Z,10.60
2023-02-13T10:47:44.904Z,10.80
2023-02-13T10:50:27.721Z,10.70
2023-02-13T10:53:21.106Z,10.70
2023-02-13T10:56:41.302Z,11.00
2023-02-13T10:59:42.149Z,11.10
2023-02-13T11:02:27.738Z,11.20
2023-02-13T11:08:31.458Z,11.40
2023-02-13T11:31:23.901Z,13.00
2023-02-13T11:33:51.511Z,13.00
2023-02-13T11:36:29.778Z,13.10
2023-02-13T11:39:22.537Z,13.20
2023-02-13T11:41:51.627Z,13.40
2023-02-13T11:44:28.927Z,13.40
2023-02-13T11:46:58.781Z,13.50
2023-02-13T11:49:27.073Z,13.60
2023-02-13T11:52:00.544Z,13.60
2023-02-13T11:54:43.676Z,13.70
2023-02-13T11:57:29.006Z,13.70
2023-02-13T12:00:01.254Z,13.80
2023-02-13T12:03:09.541Z,13.80
2023-02-13T12:06:08.740Z,13.90
2023-02-13T12:08:37.595Z,14.10
2023-02-13T12:11:29.565Z,14.10
2023-02-13T12:13:58.629Z,14.10
2023-02-13T12:16:43.617Z,14.20
2023-02-13T12:19:28.199Z,14.30
2023-02-13T12:22:07.942Z,14.30
2023-02-13T12:25:04.167Z,14.60
2023-02-13T12:28:04.581Z,14.80
2023-02-13T12:30:40.176Z,14.90
2023-02-13T12:33:25.364Z,15.00
2023-02-13T12:36:10.471Z,15.00
2023-02-13T12:39:04.819Z,15.10
2023-02-13T12:41:54.467Z,15.00
2023-02-13T12:44:34.330Z,15.00
2023-02-13T12:47:13.533Z,14.90
2023-02-13T12:49:52.060Z,14.90
2023-02-13T12:52:27.750Z,14.80
2023-02-13T12:55:34.228Z,14.90
2023-02-13T12:58:15.117Z,15.00
2023-02-13T13:01:11.645Z,15.10
2023-02-13T13:04:02.271Z,15.00
2023-02-13T13:06:47.695Z,14.90
2023-02-13T13:09:41.168Z,14.90
2023-02-13T13:12:24.397Z,15.00
2023-02-13T13:15:03.040Z,15.00
2023-02-13T13:17:51.620Z,14.90
2023-02-13T13:20:48.185Z,14.90
2023-02-13T13:23:39.032Z,15.20
2023-02-13T13:26:25.308Z,15.20
2023-02-13T13:31:55.629Z,15.70
2023-02-13T13:34:25.093Z,15.90
2023-02-13T13:37:03.336Z,15.90
2023-02-13T13:39:47.377Z,16.00
2023-02-13T13:42:31.505Z,15.90
2023-02-13T13:45:22.337Z,15.90
2023-02-13T13:47:54.132Z,16.00
2023-02-13T13:53:18.362Z,16.20
2023-02-13T13:56:13.845Z,16.30
2023-02-13T13:58:45.961Z,16.10
2023-02-13T14:01:30.090Z,16.10
2023-02-13T14:04:23.290Z,16.10
2023-02-13T14:07:02.298Z,16.10
2023-02-13T14:09:40.970Z,16.20
2023-02-13T14:12:32.246Z,15.90
2023-02-13T14:14:59.860Z,16.00
2023-02-13T14:17:44.891Z,16.00
2023-02-13T14:20:28.969Z,16.20
2023-02-13T14:23:13.374Z,16.20
2023-02-13T14:25:55.933Z,16.20
2023-02-13T14:28:28.510Z,16.20
2023-02-13T14:31:10.719Z,16.10
2023-02-13T14:33:42.112Z,16.00
2023-02-13T14:36:33.832Z,15.70
2023-02-13T14:39:23.267Z,15.80
2023-02-13T14:41:59.727Z,15.80
2023-02-13T14:44:47.797Z,15.80
2023-02-13T14:47:27.473Z,15.60
2023-02-13T14:49:56.744Z,15.50
2023-02-13T14:52:34.568Z,15.30
2023-02-13T14:55:22.391Z,15.00
2023-02-13T14:57:53.774Z,15.00
2023-02-13T15:00:47.190Z,14.90
2023-02-13T15:03:28.003Z,14.70
2023-02-13T15:06:26.796Z,14.60
2023-02-13T15:09:01.822Z,14.60
2023-02-13T15:11:43.270Z,14.50
2023-02-13T15:14:30.099Z,14.40
2023-02-13T15:16:56.953Z,14.10
2023-02-13T15:19:27.764Z,14.00
2023-02-13T15:22:00.516Z,13.80
2023-02-13T15:24:46.894Z,13.60
2023-02-13T15:27:19.175Z,13.60
2023-02-13T15:30:04.724Z,13.60
2023-02-13T15:32:36.215Z,13.50
2023-02-13T15:35:24.806Z,13.60
2023-02-13T15:37:51.999Z,13.60
2023-02-13T15:40:31.423Z,13.50
2023-02-13T15:42:59.995Z,13.50
2023-02-13T15:45:30.415Z,13.40
2023-02-13T15:47:58.363Z,13.30
2023-02-13T15:50:33.597Z,13.20
2023-02-13T15:53:03.898Z,13.00
2023-02-13T15:55:35.908Z,12.80
2023-02-13T15:58:04.217Z,12.80
2023-02-13T16:00:40.016Z,12.60
2023-02-13T16:03:16.300Z,12.40
2023-02-13T16:05:45.941Z,12.20
2023-02-13T16:08:37.931Z,12.00
2023-02-13T16:11:23.033Z,11.90
2023-02-13T16:13:59.667Z,11.70
2023-02-13T16:16:28.197Z,11.60
2023-02-13T16:19:01.119Z,11.50
2023-02-13T16:21:33.787Z,11.40
2023-02-13T16:24:05.854Z,11.20
2023-02-13T16:26:43.076Z,11.10
2023-02-13T16:29:17.902Z,11.00
2023-02-13T16:31:52.359Z,10.90
2023-02-13T16:34:29.922Z,10.90
2023-02-13T16:37:05.342Z,10.70
2023-02-13T16:39:36.643Z,10.60
2023-02-13T16:42:19.082Z,10.50
2023-02-13T16:47:41.779Z,10.40
2023-02-13T16:50:33.577Z,10.30
2023-02-13T16:53:06.175Z,10.20
2023-02-13T16:55:33.201Z,10.10
2023-02-13T16:58:04.746Z,9.90
2023-02-13T17:00:32.481Z,9.80
2023-02-13T17:03:02.659Z,9.60
2023-02-13T17:05:29.687Z,9.40
2023-02-13T17:08:00.708Z,9.20
2023-02-13T17:10:34.590Z,9.00
2023-02-13T17:13:15.237Z,8.80
2023-02-13T17:15:44.188Z,8.50
2023-02-13T17:18:10.912Z,8.20
2023-02-13T17:20:42.080Z,8.00
2023-02-13T17:23:18.029Z,7.80
2023-02-13T17:25:48.984Z,7.60
2023-02-13T17:31:16.520Z,7.30
2023-02-13T17:33:44.518Z,7.10
2023-02-13T17:36:14.458Z,7.00
2023-02-13T17:38:43.120Z,6.90
2023-02-13T17:41:14.512Z,6.80
2023-02-13T17:43:42.246Z,6.70
2023-02-13T17:46:10.286Z,6.60
2023-02-13T17:48:54.526Z,6.50
2023-02-13T17:51:23.090Z,6.40
2023-02-13T17:53:49.936Z,6.30
2023-02-13T17:56:16.719Z,6.20
2023-02-13T17:58:47.817Z,6.20
2023-02-13T18:01:28.252Z,6.00
2023-02-13T18:03:57.320Z,6.00
2023-02-13T18:06:27.137Z,5.80
2023-02-13T18:08:53.922Z,5.80
2023-02-13T18:11:20.839Z,5.70
2023-02-13T18:13:49.792Z,5.60
2023-02-13T18:16:24.569Z,5.60
2023-02-13T18:18:51.769Z,5.50
2023-02-13T18:21:22.317Z,5.40
2023-02-13T18:23:53.220Z,5.30
2023-02-13T18:26:25.216Z,5.10
2023-02-13T18:28:53.272Z,5.10
2023-02-13T18:31:20.028Z,5.00
2023-02-13T18:33:47.008Z,4.90
2023-02-13T18:36:17.400Z,4.90
2023-02-13T18:38:48.115Z,4.80
2023-02-13T18:41:14.840Z,4.80
2023-02-13T18:43:47.296Z,4.70
2023-02-13T18:46:20.427Z,4.60
2023-02-13T18:49:03.585Z,4.60
2023-02-13T18:54:13.808Z,4.50
2023-02-13T18:56:43.333Z,4.40
2023-02-13T18:59:15.199Z,4.40
2023-02-13T19:01:42.017Z,4.40
2023-02-13T19:04:14.299Z,4.40
2023-02-13T19:06:42.555Z,4.40
2023-02-13T19:09:16.320Z,4.30
2023-02-13T19:11:48.165Z,4.20
2023-02-13T19:20:06.152Z,4.20
2023-02-13T19:26:31.385Z,4.10
2023-02-13T19:28:59.257Z,4.00
2023-02-13T19:40:39.679Z,4.00
2023-02-13T19:46:50.488Z,4.00
2023-02-13T19:52:29.294Z,4.10
2023-02-13T19:54:59.425Z,4.10
2023-02-13T20:25:12.582Z,3.80
2023-02-13T20:27:44.664Z,3.80
2023-02-13T20:30:15.691Z,3.80
2023-02-13T20:32:43.313Z,3.80
2023-02-13T20:35:12.381Z,3.80
2023-02-13T20:37:39.111Z,3.80
2023-02-13T20:40:12.043Z,3.80
2023-02-13T20:42:43.510Z,3.80
2023-02-13T20:45:10.342Z,3.90
2023-02-13T20:47:37.633Z,3.80
2023-02-13T20:50:05.063Z,3.80
2023-02-13T20:52:33.828Z,3.80
2023-02-13T20:55:01.368Z,3.70
2023-02-13T20:57:42.778Z,3.70
2023-02-13T21:00:12.491Z,3.70
2023-02-13T21:02:39.272Z,3.70
2023-02-13T21:05:07.402Z,3.70
2023-02-13T21:07:36.673Z,3.60
2023-02-13T21:10:09.392Z,3.60
2023-02-13T21:12:40.157Z,3.60
2023-02-13T21:15:07.204Z,3.50
2023-02-13T21:17:33.878Z,3.50
2023-02-13T21:20:00.756Z,3.50
2023-02-13T21:22:30.783Z,3.50
2023-02-13T21:25:01.221Z,3.40
2023-02-13T21:27:30.230Z,3.30
2023-02-13T21:30:22.023Z,3.30
2023-02-13T21:32:53.303Z,3.20
2023-02-13T21:35:21.980Z,3.20
2023-02-13T21:37:51.398Z,3.10
2023-02-13T21:40:20.882Z,3.10
2023-02-13T21:42:52.473Z,3.10
2023-02-13T21:45:26.225Z,3.20
2023-02-13T21:48:00.374Z,3.20
2023-02-13T21:50:27.164Z,3.10
2023-02-13T21:52:59.389Z,3.10
2023-02-13T21:55:28.544Z,3.00
2023-02-13T21:57:55.264Z,2.90
2023-02-13T22:00:22.094Z,2.90
2023-02-13T22:02:52.686Z,2.90
2023-02-13T22:05:19.390Z,2.70
2023-02-13T22:08:05.570Z,2.60
2023-02-13T22:13:33.633Z,2.60
2023-02-13T22:16:06.195Z,2.60
2023-02-13T22:18:37.595Z,2.50
2023-02-13T22:21:09.542Z,2.50
2023-02-13T22:23:37.032Z,2.50
2023-02-13T22:26:24.462Z,2.50
2023-02-13T22:29:20.879Z,2.40
2023-02-13T22:31:47.863Z,2.40
2023-02-13T22:34:16.988Z,2.40
2023-02-13T22:36:49.489Z,2.40
2023-02-13T22:39:32.361Z,2.40
2023-02-13T22:41:59.016Z,2.40
2023-02-13T22:44:26.629Z,2.30
2023-02-13T22:47:23.323Z,2.30
2023-02-13T22:49:50.072Z,2.30
2023-02-13T22:52:21.294Z,2.30
2023-02-13T22:54:48.803Z,2.20
2023-02-13T22:57:18.495Z,2.30
2023-02-13T23:00:11.260Z,2.20
2023-02-13T23:02:44.560Z,2.20
2023-02-13T23:05:13.620Z,2.20
2023-02-13T23:08:07.393Z,2.20
2023-02-13T23:10:37.900Z,2.10
2023-02-13T23:13:07.234Z,2.10
2023-02-13T23:16:00.227Z,2.00
2023-02-13T23:18:27.093Z,1.90
2023-02-13T23:20:56.174Z,1.80
2023-02-13T23:23:27.635Z,1.70
2023-02-13T23:25:54.411Z,1.70
2023-02-13T23:28:21.039Z,1.70
2023-02-13T23:30:48.946Z,1.60
2023-02-13T23:33:15.694Z,1.60
2023-02-13T23:35:42.377Z,1.60
2023-02-13T23:38:16.649Z,1.50
2023-02-13T23:40:44.800Z,1.50
2023-02-13T23:43:12.271Z,1.50
2023-02-13T23:51:38.856Z,1.30
2023-02-13T23:54:07.627Z,1.20
2023-02-13T23:56:34.540Z,1.10
2023-02-13T23:59:03.163Z,1.10
